Tonyrefail, United Kingdom
Current Conditions -  °F | °C
As of 1:50 PM on Wednesday 22 Oct 2014 (Local Time) from EGDX Reporting Station
Light Rain Light Rain  
Wind Chill: 55°   Ceiling: 3300
Heat Index: 55°   Visibility: 6mi
Dew Point: 46°   Wind: 13mph
Humidity: 72%   Direction: 270°W
Pressure: 30.27"   Gusts: NA
Location:  51.58°N, 3.43°W
Report Text: EGDX 221250Z 27011KT 9999 -RA SCT026 BKN033 13/08 Q1025 BLU
Loading
Personal Weather Stations






























Interactive Weather Map New forecast layout! Learn more

10-Day Weather Forecast

Advertisements
Track Severe Weather on mobile